首页
METAR-TAF:

METAR-TAF

机场 :

格罗宁根, 荷兰

纬度: 53-08N, 经度: 006-35E, 海拔: 4米

当前天气观测

该预报发布于14分钟前的04:55 UTC
风速9节,风向西转西北,在西转西南西北之间变化
温度 7°C
湿度 87%
气压 1009 hPa
能见度10公里或以上
少量云层高于2900英尺
散云层高于3300英尺
多云层高于3800英尺

METAR: EHGG 190455Z AUTO 29009KT 240V320 9999 FEW029 SCT033 BKN038 07/05 Q1009 TEMPO 7000 -SHRA FEW020CB

时间: 06:09 (05:09 UTC)

预报

该预报发布于5小时和48分钟前的23:21 UTC
预报有效从19日的 00点(UTC)到 20日的 06点(UTC)
风速10节,风向西
能见度10公里或以上
多云层高于2500英尺
短暂存在
从 19日的 00点(UTC)到 19日的 02点(UTC)
能見度: 7000
散云层高于1500英尺, 塔状积云.
多云层高于2000英尺
小雨, 小阵雨
几率 40% :
短暂存在
从 19日的 02点(UTC)到 19日的 12点(UTC)
能見度: 7000
散云层高于1800英尺, 塔状积云.
小阵雨
成为
从 19日的 14点(UTC)到 19日的 17点(UTC)
风速5节,风向西转西南
成为
从 19日的 17点(UTC)到 19日的 20点(UTC)
能見度: 4000
浅雾, 轻雾
短暂存在
从 19日的 20点(UTC)到 20日的 01点(UTC)
能見度: 1200
碎片雾
成为
从 20日的 01点(UTC)到 20日的 03点(UTC)
能見度: 0400
层低于100英尺
雾, 冻雾

TAF: EHGG 182321Z 1900/2006 28010KT 9999 BKN025 TEMPO 1900/1902 7000 -RA -SHRA SCT015TCU BKN020 PROB40 TEMPO 1902/1912 7000 -SHRA SCT018TCU BECMG 1914/1917 25005KT BECMG 1917/1920 4000 MIFG BR TEMPO 1920/2001 1200 BCFG BECMG 2001/2003 0400 FG FZFG VV000

超过4000个机场的气象观测和天气预报(METAR&TAF报告)。

可查询的气象台以黄色和红色小点在地图上表示。

将鼠标移到小点上方,可查看气象台名称。

然后点击查看天气观测和预报。

如需切换地图:点击带黑十字的绿色按钮放大地图;点击带横线的绿色按钮缩小地图;或者点击绿色箭头查看邻近地区的地图。


METAR-TAF: